sensor_id;sensor_type;location;lat;lon;timestamp;P1;durP1;ratioP1;P2;durP2;ratioP2
13872;SDS011;7006;51.494;11.964;2022-11-15T00:01:16;26.53;;;18.57;;
13872;SDS011;7006;51.494;11.964;2022-11-15T00:03:43;27.63;;;18.57;;
13872;SDS011;7006;51.494;11.964;2022-11-15T00:06:09;26.20;;;16.90;;
13872;SDS011;7006;51.494;11.964;2022-11-15T00:08:35;25.63;;;16.70;;
13872;SDS011;7006;51.494;11.964;2022-11-15T00:11:02;27.30;;;18.07;;
13872;SDS011;7006;51.494;11.964;2022-11-15T00:13:29;25.83;;;16.60;;
13872;SDS011;7006;51.494;11.964;2022-11-15T00:15:56;27.27;;;18.47;;
13872;SDS011;7006;51.494;11.964;2022-11-15T00:18:24;21.90;;;15.80;;
13872;SDS011;7006;51.494;11.964;2022-11-15T00:20:51;24.67;;;16.97;;
13872;SDS011;7006;51.494;11.964;2022-11-15T00:23:17;25.30;;;15.83;;
13872;SDS011;7006;51.494;11.964;2022-11-15T00:25:43;24.50;;;16.40;;
13872;SDS011;7006;51.494;11.964;2022-11-15T00:28:10;25.83;;;17.20;;
13872;SDS011;7006;51.494;11.964;2022-11-15T00:30:36;23.60;;;16.10;;
13872;SDS011;7006;51.494;11.964;2022-11-15T00:33:02;22.13;;;14.63;;
13872;SDS011;7006;51.494;11.964;2022-11-15T00:35:32;23.07;;;16.47;;
13872;SDS011;7006;51.494;11.964;2022-11-15T00:37:59;22.73;;;15.27;;
13872;SDS011;7006;51.494;11.964;2022-11-15T00:40:25;22.30;;;15.43;;
13872;SDS011;7006;51.494;11.964;2022-11-15T00:42:52;22.80;;;15.53;;
13872;SDS011;7006;51.494;11.964;2022-11-15T00:45:18;22.50;;;16.60;;
13872;SDS011;7006;51.494;11.964;2022-11-15T00:47:44;21.60;;;16.23;;
13872;SDS011;7006;51.494;11.964;2022-11-15T00:50:11;21.53;;;15.23;;
13872;SDS011;7006;51.494;11.964;2022-11-15T00:52:39;25.27;;;16.53;;
13872;SDS011;7006;51.494;11.964;2022-11-15T00:55:05;20.77;;;14.03;;
13872;SDS011;7006;51.494;11.964;2022-11-15T00:57:31;20.80;;;15.40;;
13872;SDS011;7006;51.494;11.964;2022-11-15T00:59:58;22.77;;;16.00;;
13872;SDS011;7006;51.494;11.964;2022-11-15T01:02:24;21.77;;;15.50;;
13872;SDS011;7006;51.494;11.964;2022-11-15T01:04:50;27.97;;;15.80;;
13872;SDS011;7006;51.494;11.964;2022-11-15T01:07:17;23.13;;;15.33;;
13872;SDS011;7006;51.494;11.964;2022-11-15T01:09:44;24.30;;;15.47;;
13872;SDS011;7006;51.494;11.964;2022-11-15T01:12:11;25.07;;;15.33;;
13872;SDS011;7006;51.494;11.964;2022-11-15T01:14:37;22.00;;;14.37;;
13872;SDS011;7006;51.494;11.964;2022-11-15T01:17:03;23.27;;;15.63;;
13872;SDS011;7006;51.494;11.964;2022-11-15T01:19:30;22.03;;;15.50;;
13872;SDS011;7006;51.494;11.964;2022-11-15T01:21:56;21.67;;;14.83;;
13872;SDS011;7006;51.494;11.964;2022-11-15T01:24:22;23.77;;;15.47;;
13872;SDS011;7006;51.494;11.964;2022-11-15T01:26:50;22.40;;;15.10;;
13872;SDS011;7006;51.494;11.964;2022-11-15T01:29:16;25.40;;;16.47;;
13872;SDS011;7006;51.494;11.964;2022-11-15T01:31:43;23.47;;;16.23;;
13872;SDS011;7006;51.494;11.964;2022-11-15T01:34:09;23.07;;;16.00;;
13872;SDS011;7006;51.494;11.964;2022-11-15T01:36:36;23.20;;;15.30;;
13872;SDS011;7006;51.494;11.964;2022-11-15T01:39:02;22.40;;;15.70;;
13872;SDS011;7006;51.494;11.964;2022-11-15T01:41:30;21.67;;;15.17;;
13872;SDS011;7006;51.494;11.964;2022-11-15T01:46:46;26.60;;;15.20;;
13872;SDS011;7006;51.494;11.964;2022-11-15T01:49:14;20.77;;;14.93;;
13872;SDS011;7006;51.494;11.964;2022-11-15T01:51:41;23.17;;;16.10;;
13872;SDS011;7006;51.494;11.964;2022-11-15T01:54:08;23.70;;;15.67;;
13872;SDS011;7006;51.494;11.964;2022-11-15T01:56:37;24.33;;;15.27;;
13872;SDS011;7006;51.494;11.964;2022-11-15T01:59:04;18.63;;;14.33;;
13872;SDS011;7006;51.494;11.964;2022-11-15T02:01:32;22.43;;;15.63;;
13872;SDS011;7006;51.494;11.964;2022-11-15T02:04:02;25.80;;;14.47;;
13872;SDS011;7006;51.494;11.964;2022-11-15T02:06:29;23.60;;;15.73;;
13872;SDS011;7006;51.494;11.964;2022-11-15T02:08:56;20.97;;;15.80;;
13872;SDS011;7006;51.494;11.964;2022-11-15T02:11:22;22.27;;;15.27;;
13872;SDS011;7006;51.494;11.964;2022-11-15T02:13:49;22.43;;;14.60;;
13872;SDS011;7006;51.494;11.964;2022-11-15T02:16:16;21.17;;;14.47;;
13872;SDS011;7006;51.494;11.964;2022-11-15T02:18:46;19.53;;;14.00;;
13872;SDS011;7006;51.494;11.964;2022-11-15T02:21:18;20.87;;;13.97;;
13872;SDS011;7006;51.494;11.964;2022-11-15T02:24:02;21.77;;;14.40;;
13872;SDS011;7006;51.494;11.964;2022-11-15T02:29:15;20.27;;;14.30;;
13872;SDS011;7006;51.494;11.964;2022-11-15T02:31:45;22.90;;;14.87;;
13872;SDS011;7006;51.494;11.964;2022-11-15T02:34:17;21.67;;;14.47;;
13872;SDS011;7006;51.494;11.964;2022-11-15T02:36:49;21.50;;;14.30;;
13872;SDS011;7006;51.494;11.964;2022-11-15T02:39:21;21.50;;;14.50;;
13872;SDS011;7006;51.494;11.964;2022-11-15T02:41:50;20.73;;;14.37;;
13872;SDS011;7006;51.494;11.964;2022-11-15T02:44:19;23.93;;;14.20;;
13872;SDS011;7006;51.494;11.964;2022-11-15T02:46:49;19.20;;;14.10;;
13872;SDS011;7006;51.494;11.964;2022-11-15T02:49:35;24.57;;;15.50;;
13872;SDS011;7006;51.494;11.964;2022-11-15T02:52:02;24.10;;;15.73;;
13872;SDS011;7006;51.494;11.964;2022-11-15T02:54:29;22.60;;;14.37;;
13872;SDS011;7006;51.494;11.964;2022-11-15T02:56:58;23.50;;;15.37;;
13872;SDS011;7006;51.494;11.964;2022-11-15T02:59:31;24.53;;;16.07;;
13872;SDS011;7006;51.494;11.964;2022-11-15T03:02:08;21.03;;;14.83;;
13872;SDS011;7006;51.494;11.964;2022-11-15T03:04:37;21.90;;;15.33;;
13872;SDS011;7006;51.494;11.964;2022-11-15T03:07:07;21.07;;;13.80;;
13872;SDS011;7006;51.494;11.964;2022-11-15T03:09:38;25.97;;;16.13;;
13872;SDS011;7006;51.494;11.964;2022-11-15T03:12:08;21.93;;;15.50;;
13872;SDS011;7006;51.494;11.964;2022-11-15T03:14:37;20.83;;;14.03;;
13872;SDS011;7006;51.494;11.964;2022-11-15T03:17:07;19.57;;;14.97;;
13872;SDS011;7006;51.494;11.964;2022-11-15T03:19:40;22.30;;;15.30;;
13872;SDS011;7006;51.494;11.964;2022-11-15T03:22:09;21.70;;;15.10;;
13872;SDS011;7006;51.494;11.964;2022-11-15T03:24:37;19.70;;;14.47;;
13872;SDS011;7006;51.494;11.964;2022-11-15T03:27:04;23.50;;;15.03;;
13872;SDS011;7006;51.494;11.964;2022-11-15T03:29:32;20.43;;;15.03;;
13872;SDS011;7006;51.494;11.964;2022-11-15T03:32:00;23.03;;;14.53;;
13872;SDS011;7006;51.494;11.964;2022-11-15T03:34:29;21.37;;;14.80;;
13872;SDS011;7006;51.494;11.964;2022-11-15T03:36:57;23.50;;;15.40;;
13872;SDS011;7006;51.494;11.964;2022-11-15T03:39:24;24.70;;;16.00;;
13872;SDS011;7006;51.494;11.964;2022-11-15T03:41:52;22.10;;;15.20;;
13872;SDS011;7006;51.494;11.964;2022-11-15T03:44:26;22.57;;;14.63;;
13872;SDS011;7006;51.494;11.964;2022-11-15T03:46:57;19.63;;;14.30;;
13872;SDS011;7006;51.494;11.964;2022-11-15T03:49:27;23.63;;;14.17;;
13872;SDS011;7006;51.494;11.964;2022-11-15T03:51:57;21.57;;;14.63;;
13872;SDS011;7006;51.494;11.964;2022-11-15T03:54:24;25.57;;;14.10;;
13872;SDS011;7006;51.494;11.964;2022-11-15T03:56:50;19.70;;;13.50;;
13872;SDS011;7006;51.494;11.964;2022-11-15T03:59:16;23.10;;;14.80;;
13872;SDS011;7006;51.494;11.964;2022-11-15T04:01:43;19.93;;;13.60;;
13872;SDS011;7006;51.494;11.964;2022-11-15T04:04:09;22.60;;;14.40;;
13872;SDS011;7006;51.494;11.964;2022-11-15T04:06:35;21.60;;;14.10;;
13872;SDS011;7006;51.494;11.964;2022-11-15T04:09:03;22.37;;;14.97;;
13872;SDS011;7006;51.494;11.964;2022-11-15T04:11:30;21.80;;;15.87;;
13872;SDS011;7006;51.494;11.964;2022-11-15T04:13:56;19.60;;;13.80;;
13872;SDS011;7006;51.494;11.964;2022-11-15T04:16:22;24.70;;;14.30;;
13872;SDS011;7006;51.494;11.964;2022-11-15T04:18:49;24.13;;;14.50;;
13872;SDS011;7006;51.494;11.964;2022-11-15T04:21:35;20.50;;;14.70;;
13872;SDS011;7006;51.494;11.964;2022-11-15T04:24:20;22.63;;;14.47;;
13872;SDS011;7006;51.494;11.964;2022-11-15T04:26:47;22.67;;;15.30;;
13872;SDS011;7006;51.494;11.964;2022-11-15T04:29:13;25.53;;;15.80;;
13872;SDS011;7006;51.494;11.964;2022-11-15T04:31:57;27.40;;;17.27;;
13872;SDS011;7006;51.494;11.964;2022-11-15T04:34:23;31.43;;;17.50;;
13872;SDS011;7006;51.494;11.964;2022-11-15T04:36:50;28.57;;;16.20;;
13872;SDS011;7006;51.494;11.964;2022-11-15T04:39:35;25.33;;;15.70;;
13872;SDS011;7006;51.494;11.964;2022-11-15T04:42:02;24.77;;;15.20;;
13872;SDS011;7006;51.494;11.964;2022-11-15T04:44:28;23.33;;;15.00;;
13872;SDS011;7006;51.494;11.964;2022-11-15T04:46:54;22.13;;;15.00;;
13872;SDS011;7006;51.494;11.964;2022-11-15T04:49:21;21.90;;;15.30;;
13872;SDS011;7006;51.494;11.964;2022-11-15T04:51:47;22.47;;;15.80;;
13872;SDS011;7006;51.494;11.964;2022-11-15T04:54:14;21.53;;;15.80;;
13872;SDS011;7006;51.494;11.964;2022-11-15T04:56:41;21.67;;;14.80;;
13872;SDS011;7006;51.494;11.964;2022-11-15T04:59:08;20.90;;;14.83;;
13872;SDS011;7006;51.494;11.964;2022-11-15T05:01:34;24.77;;;16.37;;
13872;SDS011;7006;51.494;11.964;2022-11-15T05:04:00;18.47;;;13.70;;
13872;SDS011;7006;51.494;11.964;2022-11-15T05:06:44;23.90;;;14.90;;
13872;SDS011;7006;51.494;11.964;2022-11-15T05:09:10;20.10;;;14.23;;
13872;SDS011;7006;51.494;11.964;2022-11-15T05:11:38;23.23;;;15.67;;
13872;SDS011;7006;51.494;11.964;2022-11-15T05:14:05;21.87;;;14.80;;
13872;SDS011;7006;51.494;11.964;2022-11-15T05:16:32;23.93;;;15.60;;
13872;SDS011;7006;51.494;11.964;2022-11-15T05:18:58;24.50;;;15.60;;
13872;SDS011;7006;51.494;11.964;2022-11-15T05:21:24;23.37;;;15.00;;
13872;SDS011;7006;51.494;11.964;2022-11-15T05:23:51;23.37;;;16.20;;
13872;SDS011;7006;51.494;11.964;2022-11-15T05:26:17;30.20;;;16.50;;
13872;SDS011;7006;51.494;11.964;2022-11-15T05:28:44;25.87;;;15.47;;
13872;SDS011;7006;51.494;11.964;2022-11-15T05:31:13;22.60;;;15.40;;
13872;SDS011;7006;51.494;11.964;2022-11-15T05:33:40;26.93;;;16.80;;
13872;SDS011;7006;51.494;11.964;2022-11-15T05:36:07;28.63;;;16.73;;
13872;SDS011;7006;51.494;11.964;2022-11-15T05:38:35;23.83;;;16.33;;
13872;SDS011;7006;51.494;11.964;2022-11-15T05:41:02;24.47;;;16.03;;
13872;SDS011;7006;51.494;11.964;2022-11-15T05:43:29;24.80;;;15.70;;
13872;SDS011;7006;51.494;11.964;2022-11-15T05:45:56;23.03;;;15.80;;
13872;SDS011;7006;51.494;11.964;2022-11-15T05:48:24;24.77;;;15.97;;
13872;SDS011;7006;51.494;11.964;2022-11-15T05:50:51;23.10;;;14.60;;
13872;SDS011;7006;51.494;11.964;2022-11-15T05:53:18;22.80;;;15.87;;
13872;SDS011;7006;51.494;11.964;2022-11-15T05:55:45;27.40;;;16.57;;
13872;SDS011;7006;51.494;11.964;2022-11-15T05:58:11;26.53;;;16.87;;
13872;SDS011;7006;51.494;11.964;2022-11-15T06:00:38;23.53;;;15.57;;
13872;SDS011;7006;51.494;11.964;2022-11-15T06:03:04;21.90;;;15.37;;
13872;SDS011;7006;51.494;11.964;2022-11-15T06:05:32;24.43;;;16.40;;
13872;SDS011;7006;51.494;11.964;2022-11-15T06:07:58;25.80;;;15.60;;
13872;SDS011;7006;51.494;11.964;2022-11-15T06:10:26;23.80;;;15.73;;
13872;SDS011;7006;51.494;11.964;2022-11-15T06:12:56;20.90;;;14.73;;
13872;SDS011;7006;51.494;11.964;2022-11-15T06:15:22;21.83;;;15.40;;
13872;SDS011;7006;51.494;11.964;2022-11-15T06:17:49;23.87;;;14.80;;
13872;SDS011;7006;51.494;11.964;2022-11-15T06:20:15;23.63;;;15.00;;
13872;SDS011;7006;51.494;11.964;2022-11-15T06:22:43;20.50;;;13.87;;
13872;SDS011;7006;51.494;11.964;2022-11-15T06:25:09;24.40;;;15.00;;
13872;SDS011;7006;51.494;11.964;2022-11-15T06:27:36;20.00;;;14.60;;
13872;SDS011;7006;51.494;11.964;2022-11-15T06:30:02;24.87;;;16.00;;
13872;SDS011;7006;51.494;11.964;2022-11-15T06:32:29;22.60;;;15.30;;
13872;SDS011;7006;51.494;11.964;2022-11-15T06:34:55;24.07;;;15.00;;
13872;SDS011;7006;51.494;11.964;2022-11-15T06:37:22;20.83;;;14.77;;
13872;SDS011;7006;51.494;11.964;2022-11-15T06:39:49;23.87;;;15.80;;
13872;SDS011;7006;51.494;11.964;2022-11-15T06:42:16;22.00;;;14.57;;
13872;SDS011;7006;51.494;11.964;2022-11-15T06:44:42;23.70;;;15.17;;
13872;SDS011;7006;51.494;11.964;2022-11-15T06:47:08;26.63;;;15.33;;
13872;SDS011;7006;51.494;11.964;2022-11-15T06:49:35;25.97;;;15.57;;
13872;SDS011;7006;51.494;11.964;2022-11-15T06:52:01;24.90;;;14.00;;
13872;SDS011;7006;51.494;11.964;2022-11-15T06:54:27;26.33;;;13.87;;
13872;SDS011;7006;51.494;11.964;2022-11-15T06:56:55;23.63;;;14.70;;
13872;SDS011;7006;51.494;11.964;2022-11-15T06:59:21;22.20;;;13.97;;
13872;SDS011;7006;51.494;11.964;2022-11-15T07:01:48;22.23;;;13.90;;
13872;SDS011;7006;51.494;11.964;2022-11-15T07:04:15;25.33;;;15.10;;
13872;SDS011;7006;51.494;11.964;2022-11-15T07:06:41;21.63;;;14.87;;
13872;SDS011;7006;51.494;11.964;2022-11-15T07:09:07;23.93;;;14.73;;
13872;SDS011;7006;51.494;11.964;2022-11-15T07:11:34;24.83;;;15.17;;
13872;SDS011;7006;51.494;11.964;2022-11-15T07:14:02;22.67;;;14.40;;
13872;SDS011;7006;51.494;11.964;2022-11-15T07:16:29;19.63;;;13.60;;
13872;SDS011;7006;51.494;11.964;2022-11-15T07:18:58;23.93;;;13.80;;
13872;SDS011;7006;51.494;11.964;2022-11-15T07:21:27;21.07;;;14.00;;
13872;SDS011;7006;51.494;11.964;2022-11-15T07:23:54;21.70;;;14.80;;
13872;SDS011;7006;51.494;11.964;2022-11-15T07:26:20;20.60;;;14.17;;
13872;SDS011;7006;51.494;11.964;2022-11-15T07:28:47;25.83;;;16.20;;
13872;SDS011;7006;51.494;11.964;2022-11-15T07:31:16;23.40;;;14.90;;
13872;SDS011;7006;51.494;11.964;2022-11-15T07:33:43;22.17;;;14.30;;
13872;SDS011;7006;51.494;11.964;2022-11-15T07:36:10;21.73;;;14.13;;
13872;SDS011;7006;51.494;11.964;2022-11-15T07:38:36;20.80;;;12.40;;
13872;SDS011;7006;51.494;11.964;2022-11-15T07:41:04;24.23;;;13.77;;
13872;SDS011;7006;51.494;11.964;2022-11-15T07:43:34;23.13;;;13.90;;
13872;SDS011;7006;51.494;11.964;2022-11-15T07:46:04;18.57;;;14.17;;
13872;SDS011;7006;51.494;11.964;2022-11-15T07:48:32;35.23;;;20.63;;
13872;SDS011;7006;51.494;11.964;2022-11-15T07:50:59;40.87;;;24.13;;
13872;SDS011;7006;51.494;11.964;2022-11-15T07:53:28;33.73;;;19.30;;
13872;SDS011;7006;51.494;11.964;2022-11-15T07:55:55;26.40;;;16.43;;
13872;SDS011;7006;51.494;11.964;2022-11-15T07:58:21;22.57;;;14.83;;
13872;SDS011;7006;51.494;11.964;2022-11-15T08:00:49;21.10;;;13.97;;
13872;SDS011;7006;51.494;11.964;2022-11-15T08:03:16;19.60;;;13.70;;
13872;SDS011;7006;51.494;11.964;2022-11-15T08:05:49;19.77;;;13.93;;
13872;SDS011;7006;51.494;11.964;2022-11-15T08:08:16;17.30;;;12.80;;
13872;SDS011;7006;51.494;11.964;2022-11-15T08:10:43;18.53;;;12.10;;
13872;SDS011;7006;51.494;11.964;2022-11-15T08:13:10;14.60;;;11.50;;
13872;SDS011;7006;51.494;11.964;2022-11-15T08:15:37;18.03;;;13.03;;
13872;SDS011;7006;51.494;11.964;2022-11-15T08:18:10;21.50;;;12.70;;
13872;SDS011;7006;51.494;11.964;2022-11-15T08:20:38;22.03;;;13.17;;
13872;SDS011;7006;51.494;11.964;2022-11-15T08:23:06;15.80;;;12.23;;
13872;SDS011;7006;51.494;11.964;2022-11-15T08:25:34;17.70;;;12.90;;
13872;SDS011;7006;51.494;11.964;2022-11-15T08:28:02;17.87;;;11.73;;
13872;SDS011;7006;51.494;11.964;2022-11-15T08:30:31;16.90;;;12.47;;
13872;SDS011;7006;51.494;11.964;2022-11-15T08:33:04;20.37;;;12.23;;
13872;SDS011;7006;51.494;11.964;2022-11-15T08:35:31;15.77;;;12.60;;
13872;SDS011;7006;51.494;11.964;2022-11-15T08:37:58;17.50;;;12.00;;
13872;SDS011;7006;51.494;11.964;2022-11-15T08:40:34;16.40;;;11.97;;
13872;SDS011;7006;51.494;11.964;2022-11-15T08:43:06;14.43;;;10.90;;
13872;SDS011;7006;51.494;11.964;2022-11-15T08:45:33;14.10;;;10.90;;
13872;SDS011;7006;51.494;11.964;2022-11-15T08:48:02;16.60;;;12.40;;
13872;SDS011;7006;51.494;11.964;2022-11-15T08:50:30;14.73;;;11.10;;
13872;SDS011;7006;51.494;11.964;2022-11-15T08:52:56;17.00;;;11.67;;
13872;SDS011;7006;51.494;11.964;2022-11-15T08:55:23;15.93;;;11.20;;
13872;SDS011;7006;51.494;11.964;2022-11-15T08:57:51;13.97;;;11.53;;
13872;SDS011;7006;51.494;11.964;2022-11-15T09:00:20;14.17;;;11.07;;
13872;SDS011;7006;51.494;11.964;2022-11-15T09:02:48;14.00;;;10.80;;
13872;SDS011;7006;51.494;11.964;2022-11-15T09:05:15;14.63;;;11.47;;
13872;SDS011;7006;51.494;11.964;2022-11-15T09:07:44;13.27;;;10.93;;
13872;SDS011;7006;51.494;11.964;2022-11-15T09:10:10;16.20;;;11.67;;
13872;SDS011;7006;51.494;11.964;2022-11-15T09:12:37;14.97;;;11.77;;
13872;SDS011;7006;51.494;11.964;2022-11-15T09:15:09;14.27;;;11.07;;
13872;SDS011;7006;51.494;11.964;2022-11-15T09:17:36;16.23;;;11.60;;
13872;SDS011;7006;51.494;11.964;2022-11-15T09:20:03;16.13;;;12.13;;
13872;SDS011;7006;51.494;11.964;2022-11-15T09:22:30;18.00;;;13.77;;
13872;SDS011;7006;51.494;11.964;2022-11-15T09:24:59;19.33;;;15.07;;
13872;SDS011;7006;51.494;11.964;2022-11-15T09:27:27;16.73;;;13.50;;
13872;SDS011;7006;51.494;11.964;2022-11-15T09:29:56;18.00;;;13.63;;
13872;SDS011;7006;51.494;11.964;2022-11-15T09:32:27;22.20;;;14.23;;
13872;SDS011;7006;51.494;11.964;2022-11-15T09:34:54;17.37;;;12.90;;
13872;SDS011;7006;51.494;11.964;2022-11-15T09:37:20;13.03;;;10.70;;
13872;SDS011;7006;51.494;11.964;2022-11-15T09:39:47;13.10;;;9.90;;
13872;SDS011;7006;51.494;11.964;2022-11-15T09:45:06;13.90;;;11.50;;
13872;SDS011;7006;51.494;11.964;2022-11-15T09:47:49;17.10;;;11.13;;
13872;SDS011;7006;51.494;11.964;2022-11-15T09:50:17;17.13;;;11.17;;
13872;SDS011;7006;51.494;11.964;2022-11-15T09:52:48;14.10;;;10.67;;
13872;SDS011;7006;51.494;11.964;2022-11-15T09:55:15;15.57;;;11.13;;
13872;SDS011;7006;51.494;11.964;2022-11-15T09:57:48;15.20;;;11.90;;
13872;SDS011;7006;51.494;11.964;2022-11-15T10:00:31;11.23;;;9.50;;
13872;SDS011;7006;51.494;11.964;2022-11-15T10:03:09;13.57;;;10.50;;
13872;SDS011;7006;51.494;11.964;2022-11-15T10:05:48;14.10;;;10.77;;
13872;SDS011;7006;51.494;11.964;2022-11-15T10:11:03;12.70;;;9.47;;
13872;SDS011;7006;51.494;11.964;2022-11-15T10:13:34;12.30;;;9.70;;
13872;SDS011;7006;51.494;11.964;2022-11-15T10:16:04;13.67;;;9.90;;
13872;SDS011;7006;51.494;11.964;2022-11-15T10:18:35;12.23;;;9.80;;
13872;SDS011;7006;51.494;11.964;2022-11-15T10:21:02;11.20;;;8.60;;
13872;SDS011;7006;51.494;11.964;2022-11-15T10:23:34;14.13;;;9.47;;
13872;SDS011;7006;51.494;11.964;2022-11-15T10:26:01;12.30;;;9.30;;
13872;SDS011;7006;51.494;11.964;2022-11-15T10:28:29;11.67;;;9.70;;
13872;SDS011;7006;51.494;11.964;2022-11-15T10:30:56;12.13;;;9.30;;
13872;SDS011;7006;51.494;11.964;2022-11-15T10:33:26;12.87;;;9.80;;
13872;SDS011;7006;51.494;11.964;2022-11-15T10:38:49;9.73;;;8.73;;
13872;SDS011;7006;51.494;11.964;2022-11-15T10:41:18;12.63;;;9.20;;
13872;SDS011;7006;51.494;11.964;2022-11-15T10:44:00;8.70;;;7.40;;
13872;SDS011;7006;51.494;11.964;2022-11-15T10:46:30;9.13;;;7.43;;
13872;SDS011;7006;51.494;11.964;2022-11-15T10:49:07;9.30;;;7.10;;
13872;SDS011;7006;51.494;11.964;2022-11-15T10:51:40;14.10;;;7.10;;
13872;SDS011;7006;51.494;11.964;2022-11-15T10:54:10;9.87;;;7.13;;
13872;SDS011;7006;51.494;11.964;2022-11-15T10:56:38;10.10;;;7.57;;
13872;SDS011;7006;51.494;11.964;2022-11-15T10:59:05;9.67;;;7.60;;
13872;SDS011;7006;51.494;11.964;2022-11-15T11:01:45;12.53;;;7.13;;
13872;SDS011;7006;51.494;11.964;2022-11-15T11:04:12;11.93;;;7.13;;
13872;SDS011;7006;51.494;11.964;2022-11-15T11:06:46;8.97;;;7.63;;
13872;SDS011;7006;51.494;11.964;2022-11-15T11:09:25;10.80;;;7.47;;
13872;SDS011;7006;51.494;11.964;2022-11-15T11:12:01;13.90;;;7.33;;
13872;SDS011;7006;51.494;11.964;2022-11-15T11:14:31;13.80;;;7.47;;
13872;SDS011;7006;51.494;11.964;2022-11-15T11:17:02;7.43;;;6.23;;
13872;SDS011;7006;51.494;11.964;2022-11-15T11:19:43;7.80;;;6.83;;
13872;SDS011;7006;51.494;11.964;2022-11-15T11:22:16;8.60;;;6.70;;
13872;SDS011;7006;51.494;11.964;2022-11-15T11:24:47;18.80;;;6.83;;
13872;SDS011;7006;51.494;11.964;2022-11-15T11:27:26;9.57;;;6.90;;
13872;SDS011;7006;51.494;11.964;2022-11-15T11:30:02;7.20;;;5.73;;
13872;SDS011;7006;51.494;11.964;2022-11-15T11:32:55;10.20;;;6.67;;
13872;SDS011;7006;51.494;11.964;2022-11-15T11:35:28;6.93;;;6.23;;
13872;SDS011;7006;51.494;11.964;2022-11-15T11:38:00;9.43;;;6.30;;
13872;SDS011;7006;51.494;11.964;2022-11-15T11:40:43;10.10;;;6.70;;
13872;SDS011;7006;51.494;11.964;2022-11-15T11:43:15;8.60;;;7.23;;
13872;SDS011;7006;51.494;11.964;2022-11-15T11:48:34;7.40;;;6.23;;
13872;SDS011;7006;51.494;11.964;2022-11-15T11:51:05;7.57;;;6.10;;
13872;SDS011;7006;51.494;11.964;2022-11-15T11:53:38;7.83;;;6.20;;
13872;SDS011;7006;51.494;11.964;2022-11-15T11:56:09;11.40;;;6.37;;
13872;SDS011;7006;51.494;11.964;2022-11-15T11:58:40;9.20;;;7.70;;
13872;SDS011;7006;51.494;11.964;2022-11-15T12:01:12;12.37;;;8.27;;
13872;SDS011;7006;51.494;11.964;2022-11-15T12:03:42;8.20;;;6.33;;
13872;SDS011;7006;51.494;11.964;2022-11-15T12:06:14;6.43;;;5.83;;
13872;SDS011;7006;51.494;11.964;2022-11-15T12:08:47;7.53;;;5.30;;
13872;SDS011;7006;51.494;11.964;2022-11-15T12:11:17;7.70;;;5.10;;
13872;SDS011;7006;51.494;11.964;2022-11-15T12:13:47;6.60;;;5.20;;
13872;SDS011;7006;51.494;11.964;2022-11-15T12:16:16;7.63;;;4.30;;
13872;SDS011;7006;51.494;11.964;2022-11-15T12:18:44;7.50;;;4.83;;
13872;SDS011;7006;51.494;11.964;2022-11-15T12:21:13;5.63;;;4.47;;
13872;SDS011;7006;51.494;11.964;2022-11-15T12:23:43;9.13;;;5.00;;
13872;SDS011;7006;51.494;11.964;2022-11-15T12:26:12;5.63;;;4.67;;
13872;SDS011;7006;51.494;11.964;2022-11-15T12:28:43;5.50;;;4.90;;
13872;SDS011;7006;51.494;11.964;2022-11-15T12:31:12;7.60;;;5.07;;
13872;SDS011;7006;51.494;11.964;2022-11-15T12:33:41;7.47;;;4.50;;
13872;SDS011;7006;51.494;11.964;2022-11-15T12:36:09;4.97;;;4.47;;
13872;SDS011;7006;51.494;11.964;2022-11-15T12:38:56;7.20;;;5.60;;
13872;SDS011;7006;51.494;11.964;2022-11-15T12:41:23;7.73;;;6.00;;
13872;SDS011;7006;51.494;11.964;2022-11-15T12:43:52;8.10;;;4.90;;
13872;SDS011;7006;51.494;11.964;2022-11-15T12:46:19;5.23;;;4.13;;
13872;SDS011;7006;51.494;11.964;2022-11-15T12:48:51;7.03;;;4.60;;
13872;SDS011;7006;51.494;11.964;2022-11-15T12:51:22;4.80;;;4.30;;
13872;SDS011;7006;51.494;11.964;2022-11-15T12:53:48;6.37;;;4.33;;
13872;SDS011;7006;51.494;11.964;2022-11-15T12:56:20;7.30;;;4.77;;
13872;SDS011;7006;51.494;11.964;2022-11-15T12:58:55;5.27;;;4.73;;
13872;SDS011;7006;51.494;11.964;2022-11-15T13:04:10;5.10;;;4.60;;
13872;SDS011;7006;51.494;11.964;2022-11-15T13:06:39;6.93;;;4.50;;
13872;SDS011;7006;51.494;11.964;2022-11-15T13:11:48;7.40;;;4.80;;
13872;SDS011;7006;51.494;11.964;2022-11-15T13:16:58;5.90;;;4.23;;
13872;SDS011;7006;51.494;11.964;2022-11-15T13:19:24;7.20;;;3.90;;
13872;SDS011;7006;51.494;11.964;2022-11-15T13:21:52;6.30;;;4.33;;
13872;SDS011;7006;51.494;11.964;2022-11-15T13:24:37;5.60;;;4.10;;
13872;SDS011;7006;51.494;11.964;2022-11-15T13:27:09;6.78;;;4.10;;
13872;SDS011;7006;51.494;11.964;2022-11-15T13:29:39;8.00;;;3.60;;
13872;SDS011;7006;51.494;11.964;2022-11-15T13:32:11;5.63;;;4.07;;
13872;SDS011;7006;51.494;11.964;2022-11-15T13:34:38;5.40;;;4.20;;
13872;SDS011;7006;51.494;11.964;2022-11-15T13:37:11;5.13;;;4.20;;
13872;SDS011;7006;51.494;11.964;2022-11-15T13:39:40;6.13;;;3.60;;
13872;SDS011;7006;51.494;11.964;2022-11-15T13:42:13;8.47;;;4.73;;
13872;SDS011;7006;51.494;11.964;2022-11-15T13:44:54;6.50;;;4.87;;
13872;SDS011;7006;51.494;11.964;2022-11-15T13:47:24;5.00;;;4.20;;
13872;SDS011;7006;51.494;11.964;2022-11-15T13:49:51;4.37;;;3.60;;
13872;SDS011;7006;51.494;11.964;2022-11-15T13:52:27;6.33;;;4.20;;
13872;SDS011;7006;51.494;11.964;2022-11-15T13:54:55;5.13;;;3.90;;
13872;SDS011;7006;51.494;11.964;2022-11-15T13:57:24;6.40;;;4.10;;
13872;SDS011;7006;51.494;11.964;2022-11-15T13:59:53;8.50;;;4.67;;
13872;SDS011;7006;51.494;11.964;2022-11-15T14:02:25;5.27;;;4.00;;
13872;SDS011;7006;51.494;11.964;2022-11-15T14:04:53;6.73;;;4.10;;
13872;SDS011;7006;51.494;11.964;2022-11-15T14:07:22;7.73;;;4.67;;
13872;SDS011;7006;51.494;11.964;2022-11-15T14:09:49;6.23;;;4.40;;
13872;SDS011;7006;51.494;11.964;2022-11-15T14:12:22;14.20;;;5.67;;
13872;SDS011;7006;51.494;11.964;2022-11-15T14:14:49;8.70;;;5.50;;
13872;SDS011;7006;51.494;11.964;2022-11-15T14:17:18;5.80;;;4.33;;
13872;SDS011;7006;51.494;11.964;2022-11-15T14:19:46;6.07;;;4.80;;
13872;SDS011;7006;51.494;11.964;2022-11-15T14:22:17;6.67;;;4.73;;
13872;SDS011;7006;51.494;11.964;2022-11-15T14:24:46;8.80;;;5.53;;
13872;SDS011;7006;51.494;11.964;2022-11-15T14:27:16;6.23;;;4.90;;
13872;SDS011;7006;51.494;11.964;2022-11-15T14:29:43;7.43;;;4.90;;
13872;SDS011;7006;51.494;11.964;2022-11-15T14:32:12;8.50;;;6.03;;
13872;SDS011;7006;51.494;11.964;2022-11-15T14:34:39;6.93;;;6.00;;
13872;SDS011;7006;51.494;11.964;2022-11-15T14:37:08;10.97;;;7.10;;
13872;SDS011;7006;51.494;11.964;2022-11-15T14:39:36;53.83;;;12.37;;
13872;SDS011;7006;51.494;11.964;2022-11-15T14:42:03;41.83;;;10.47;;
13872;SDS011;7006;51.494;11.964;2022-11-15T14:44:34;9.63;;;6.07;;
13872;SDS011;7006;51.494;11.964;2022-11-15T14:47:00;14.00;;;7.10;;
13872;SDS011;7006;51.494;11.964;2022-11-15T14:49:27;8.50;;;5.93;;
13872;SDS011;7006;51.494;11.964;2022-11-15T14:51:53;11.40;;;6.50;;
13872;SDS011;7006;51.494;11.964;2022-11-15T14:54:21;11.50;;;6.20;;
13872;SDS011;7006;51.494;11.964;2022-11-15T14:56:47;10.50;;;5.83;;
13872;SDS011;7006;51.494;11.964;2022-11-15T14:59:13;10.63;;;6.00;;
13872;SDS011;7006;51.494;11.964;2022-11-15T15:01:40;10.13;;;6.30;;
13872;SDS011;7006;51.494;11.964;2022-11-15T15:04:06;9.13;;;6.20;;